createdAt,value
2018-12-18T00:04:15.463Z,85.80
2018-12-18T00:08:50.375Z,86.10
2018-12-18T00:13:25.324Z,85.20
2018-12-18T00:18:00.251Z,85.30
2018-12-18T00:22:35.220Z,84.80
2018-12-18T00:27:10.115Z,86.00
2018-12-18T00:31:45.044Z,86.90
2018-12-18T00:36:19.939Z,86.70
2018-12-18T00:40:54.880Z,86.60
2018-12-18T00:45:29.775Z,86.90
2018-12-18T00:50:05.484Z,86.90
2018-12-18T00:54:40.354Z,86.30
2018-12-18T00:59:15.435Z,86.10
2018-12-18T01:03:52.952Z,85.90
2018-12-18T01:08:27.312Z,85.30
2018-12-18T01:13:02.244Z,86.10
2018-12-18T01:17:37.198Z,85.10
2018-12-18T01:22:12.142Z,84.50
2018-12-18T01:26:47.099Z,84.30
2018-12-18T01:31:21.979Z,84.50
2018-12-18T01:35:56.869Z,84.80
2018-12-18T01:40:31.789Z,84.80
2018-12-18T01:45:07.188Z,84.70
2018-12-18T01:49:42.130Z,84.30
2018-12-18T01:54:17.520Z,83.80
2018-12-18T01:58:52.507Z,84.50
2018-12-18T02:03:27.471Z,84.30
2018-12-18T02:08:02.341Z,83.60
2018-12-18T02:12:37.251Z,83.30
2018-12-18T02:17:12.107Z,83.00
2018-12-18T02:21:47.024Z,83.00
2018-12-18T02:26:21.898Z,81.80
2018-12-18T02:30:56.795Z,82.50
2018-12-18T02:35:31.696Z,83.30
2018-12-18T02:40:07.393Z,82.70
2018-12-18T02:44:42.713Z,83.00
2018-12-18T02:49:17.643Z,82.80
2018-12-18T02:53:52.551Z,83.10
2018-12-18T02:58:27.899Z,82.30
2018-12-18T03:03:02.789Z,81.50
2018-12-18T03:07:37.703Z,81.30
2018-12-18T03:12:13.488Z,81.40
2018-12-18T03:16:48.432Z,81.10
2018-12-18T03:21:23.399Z,80.60
2018-12-18T03:25:58.336Z,79.60
2018-12-18T03:30:33.240Z,79.90
2018-12-18T03:35:08.197Z,79.50
2018-12-18T03:39:43.090Z,79.40
2018-12-18T03:44:17.972Z,79.80
2018-12-18T03:48:52.856Z,80.50
2018-12-18T03:53:27.979Z,79.60
2018-12-18T03:58:02.945Z,79.80
2018-12-18T04:02:37.856Z,79.20
2018-12-18T04:07:12.720Z,79.10
2018-12-18T04:11:53.488Z,78.30
2018-12-18T04:16:29.069Z,78.60
2018-12-18T04:21:03.950Z,76.90
2018-12-18T04:25:38.814Z,77.90
2018-12-18T04:30:13.782Z,77.40
2018-12-18T04:34:48.675Z,77.20
2018-12-18T04:39:23.715Z,76.70
2018-12-18T04:43:58.580Z,75.70
2018-12-18T04:48:33.463Z,72.70
2018-12-18T04:53:08.323Z,73.80
2018-12-18T04:57:43.424Z,74.00
2018-12-18T05:02:18.327Z,75.20
2018-12-18T05:06:53.280Z,74.70
2018-12-18T05:11:28.213Z,74.80
2018-12-18T05:16:03.110Z,73.30
2018-12-18T05:20:37.974Z,73.70
2018-12-18T05:25:12.934Z,73.00
2018-12-18T05:29:47.842Z,73.10
2018-12-18T05:34:23.044Z,73.00
2018-12-18T05:38:57.976Z,73.40
2018-12-18T05:43:32.935Z,72.80
2018-12-18T05:48:07.836Z,72.50
2018-12-18T05:52:42.801Z,70.00
2018-12-18T05:57:17.743Z,72.00
2018-12-18T06:01:52.739Z,71.60
2018-12-18T06:06:27.676Z,71.70
2018-12-18T06:11:02.625Z,71.00
2018-12-18T06:15:37.487Z,71.60
2018-12-18T06:20:12.415Z,72.30
2018-12-18T06:24:47.274Z,71.80
2018-12-18T06:29:22.274Z,71.10
2018-12-18T06:33:57.147Z,70.30
2018-12-18T06:38:32.052Z,69.70
2018-12-18T06:43:06.935Z,68.90
2018-12-18T06:47:41.823Z,67.20
2018-12-18T06:52:16.748Z,68.20
2018-12-18T06:56:51.650Z,68.70
2018-12-18T07:01:26.516Z,68.80
2018-12-18T07:06:01.420Z,68.70
2018-12-18T07:10:36.305Z,68.80
2018-12-18T07:15:11.447Z,68.30
2018-12-18T07:19:46.318Z,68.40
2018-12-18T07:24:21.204Z,66.40
2018-12-18T07:28:56.073Z,68.40
2018-12-18T07:33:30.972Z,68.30
2018-12-18T07:38:05.855Z,69.30
2018-12-18T07:42:40.860Z,68.90
2018-12-18T07:47:15.760Z,70.00
2018-12-18T07:51:50.660Z,69.00
2018-12-18T07:56:25.686Z,67.50
2018-12-18T08:01:01.199Z,69.00
2018-12-18T08:05:36.168Z,67.20
2018-12-18T08:10:11.228Z,67.80
2018-12-18T08:14:46.566Z,68.50
2018-12-18T08:19:21.445Z,66.60
2018-12-18T08:23:56.308Z,63.90
2018-12-18T08:28:31.218Z,62.80
2018-12-18T08:33:06.107Z,63.10
2018-12-18T08:37:41.017Z,64.90
2018-12-18T08:42:15.907Z,64.70
2018-12-18T08:46:50.885Z,66.40
2018-12-18T08:51:25.755Z,68.40
2018-12-18T08:56:00.643Z,66.30
2018-12-18T09:00:35.577Z,63.70
2018-12-18T09:05:11.372Z,61.80
2018-12-18T09:09:46.303Z,63.40
2018-12-18T09:14:21.215Z,60.00
2018-12-18T09:18:56.111Z,60.20
2018-12-18T09:23:31.017Z,61.20
2018-12-18T09:28:05.878Z,61.70
2018-12-18T09:32:40.767Z,61.20
2018-12-18T09:37:15.635Z,60.60
2018-12-18T09:41:52.547Z,60.40
2018-12-18T09:46:27.424Z,61.40
2018-12-18T09:51:02.323Z,63.50
2018-12-18T09:55:37.189Z,64.40
2018-12-18T10:00:12.079Z,61.30
2018-12-18T10:04:46.947Z,59.80
2018-12-18T10:09:21.828Z,60.60
2018-12-18T10:13:56.696Z,60.90
2018-12-18T10:18:31.600Z,56.70
2018-12-18T10:23:06.463Z,58.10
2018-12-18T10:27:41.355Z,56.40
2018-12-18T10:32:16.216Z,57.30
2018-12-18T10:36:51.100Z,57.00
2018-12-18T10:41:25.959Z,57.40
2018-12-18T10:46:00.877Z,56.20
2018-12-18T10:50:35.751Z,56.80
2018-12-18T10:55:10.667Z,56.80
2018-12-18T10:59:45.528Z,55.10
2018-12-18T11:04:20.413Z,54.80
2018-12-18T11:08:55.285Z,53.10
2018-12-18T11:13:30.158Z,54.40
2018-12-18T11:18:05.044Z,52.20
2018-12-18T11:22:39.960Z,53.30
2018-12-18T11:27:14.859Z,53.80
2018-12-18T11:31:49.752Z,53.40
2018-12-18T11:36:24.686Z,53.20
2018-12-18T11:40:59.631Z,52.90
2018-12-18T11:45:34.499Z,52.90
2018-12-18T11:50:09.442Z,52.10
2018-12-18T11:54:44.308Z,52.70
2018-12-18T11:59:19.499Z,51.20
2018-12-18T12:03:54.392Z,51.60
2018-12-18T12:08:29.334Z,53.50
2018-12-18T12:13:04.853Z,53.70
2018-12-18T12:17:39.843Z,53.20
2018-12-18T12:22:14.720Z,53.10
2018-12-18T12:26:52.111Z,51.60
2018-12-18T12:31:27.694Z,52.40
2018-12-18T12:36:02.591Z,50.90
2018-12-18T12:40:37.480Z,50.10
2018-12-18T12:45:12.384Z,50.00
2018-12-18T12:49:47.319Z,49.30
2018-12-18T12:54:22.317Z,49.10
2018-12-18T12:58:57.228Z,49.10
2018-12-18T13:03:32.460Z,51.80
2018-12-18T13:08:07.337Z,51.20
2018-12-18T13:12:42.230Z,48.10
2018-12-18T13:17:17.251Z,47.70
2018-12-18T13:21:52.145Z,49.30
2018-12-18T13:26:27.184Z,50.50
2018-12-18T13:31:02.080Z,50.40
2018-12-18T13:35:36.952Z,50.40
2018-12-18T13:40:11.861Z,49.20
2018-12-18T13:44:46.743Z,49.40
2018-12-18T13:49:21.715Z,50.30
2018-12-18T13:53:56.692Z,49.30
2018-12-18T13:58:31.664Z,49.10
2018-12-18T14:03:06.572Z,49.40
2018-12-18T14:07:41.476Z,50.00
2018-12-18T14:12:16.350Z,49.20
2018-12-18T14:16:51.232Z,49.10
2018-12-18T14:21:26.099Z,48.50
2018-12-18T14:26:01.000Z,48.50
2018-12-18T14:30:35.884Z,48.70
2018-12-18T14:35:11.002Z,49.40
2018-12-18T14:39:45.856Z,49.70
2018-12-18T14:44:20.954Z,49.40
2018-12-18T14:48:55.835Z,50.00
2018-12-18T14:53:30.733Z,50.00
2018-12-18T14:58:05.607Z,48.50
2018-12-18T15:02:40.485Z,47.60
2018-12-18T15:07:15.400Z,48.40
2018-12-18T15:11:50.393Z,50.20
2018-12-18T15:16:25.264Z,50.80
2018-12-18T15:21:00.169Z,52.20
2018-12-18T15:25:35.037Z,52.00
2018-12-18T15:30:10.878Z,54.10
2018-12-18T15:34:45.774Z,53.60
2018-12-18T15:39:21.500Z,53.20
2018-12-18T15:43:56.361Z,53.70
2018-12-18T15:48:31.239Z,55.90
2018-12-18T15:53:06.232Z,57.00
2018-12-18T15:57:41.144Z,57.70
2018-12-18T16:02:16.074Z,58.70
2018-12-18T16:06:51.083Z,56.80
2018-12-18T16:11:25.989Z,56.60
2018-12-18T16:16:01.089Z,53.90
2018-12-18T16:20:35.989Z,54.70
2018-12-18T16:25:10.939Z,53.90
2018-12-18T16:29:45.820Z,54.10
2018-12-18T16:34:20.808Z,53.70
2018-12-18T16:38:55.765Z,54.00
2018-12-18T16:43:30.784Z,53.80
2018-12-18T16:48:05.809Z,52.80
2018-12-18T16:52:41.443Z,54.40
2018-12-18T16:57:16.396Z,55.20
2018-12-18T17:01:51.452Z,56.50
2018-12-18T17:06:27.732Z,57.00
2018-12-18T17:11:02.659Z,56.90
2018-12-18T17:15:37.587Z,56.80
2018-12-18T17:20:12.567Z,56.90
2018-12-18T17:24:48.062Z,56.80
2018-12-18T17:29:22.994Z,57.10
2018-12-18T17:33:57.867Z,57.00
2018-12-18T17:38:32.760Z,57.60
2018-12-18T17:43:07.684Z,55.20
2018-12-18T17:47:42.763Z,56.70
2018-12-18T17:52:17.646Z,57.30
2018-12-18T17:56:53.240Z,56.80
2018-12-18T18:01:28.264Z,55.30
2018-12-18T18:06:03.229Z,55.20
2018-12-18T18:10:38.208Z,56.20
2018-12-18T18:15:13.615Z,55.70
2018-12-18T18:19:49.071Z,55.30
2018-12-18T18:24:24.588Z,55.20
2018-12-18T18:28:59.520Z,56.10
2018-12-18T18:33:34.419Z,56.20
2018-12-18T18:38:09.320Z,53.80
2018-12-18T18:42:44.228Z,55.50
2018-12-18T18:47:19.102Z,53.40
2018-12-18T18:51:53.993Z,55.20
2018-12-18T18:56:29.186Z,56.00
2018-12-18T19:01:04.223Z,55.80
2018-12-18T19:05:39.242Z,53.80
2018-12-18T19:10:14.211Z,53.60
2018-12-18T19:14:49.116Z,50.60
2018-12-18T19:19:24.161Z,50.50
2018-12-18T19:23:59.027Z,52.40
2018-12-18T19:28:33.950Z,53.10
2018-12-18T19:33:09.060Z,50.60
2018-12-18T19:37:43.955Z,52.50
2018-12-18T19:42:19.068Z,52.60
2018-12-18T19:46:54.005Z,52.00
2018-12-18T19:51:28.913Z,52.50
2018-12-18T19:56:08.721Z,52.60
2018-12-18T20:00:43.601Z,50.50
2018-12-18T20:05:18.486Z,49.60
2018-12-18T20:09:53.346Z,49.60
2018-12-18T20:14:28.243Z,50.20
2018-12-18T20:19:03.128Z,49.80
2018-12-18T20:23:38.016Z,50.00
2018-12-18T20:28:12.892Z,50.40
2018-12-18T20:32:47.803Z,50.40
2018-12-18T20:37:22.992Z,52.10
2018-12-18T20:41:58.014Z,53.20
2018-12-18T20:46:33.740Z,54.60
2018-12-18T20:51:08.631Z,53.20
2018-12-18T20:55:43.553Z,52.80
2018-12-18T21:00:18.471Z,52.10
2018-12-18T21:04:53.751Z,50.70
2018-12-18T21:09:28.649Z,51.50
2018-12-18T21:14:03.713Z,51.10
2018-12-18T21:18:38.600Z,50.20
2018-12-18T21:23:13.488Z,49.30
2018-12-18T21:27:48.511Z,48.00
2018-12-18T21:32:23.362Z,47.40
2018-12-18T21:36:58.895Z,47.20
2018-12-18T21:41:33.756Z,47.70
2018-12-18T21:46:08.675Z,46.60
2018-12-18T21:50:43.549Z,47.30
2018-12-18T21:55:18.444Z,48.60
2018-12-18T21:59:53.310Z,48.90
2018-12-18T22:04:28.212Z,49.10
2018-12-18T22:09:04.474Z,48.40
2018-12-18T22:13:39.404Z,48.60
2018-12-18T22:18:14.288Z,47.60
2018-12-18T22:22:49.195Z,48.10
2018-12-18T22:27:24.099Z,48.30
2018-12-18T22:31:59.108Z,48.70
2018-12-18T22:36:34.004Z,48.90
2018-12-18T22:41:08.913Z,49.40
2018-12-18T22:45:43.776Z,50.40
2018-12-18T22:50:18.674Z,49.90
2018-12-18T22:54:53.684Z,48.40
2018-12-18T22:59:28.571Z,48.40
2018-12-18T23:04:03.459Z,48.50
2018-12-18T23:08:38.348Z,47.90
2018-12-18T23:13:17.436Z,48.80
2018-12-18T23:17:52.320Z,47.50
2018-12-18T23:22:27.818Z,47.80
2018-12-18T23:27:03.766Z,49.20
2018-12-18T23:31:38.660Z,47.20
2018-12-18T23:36:13.547Z,46.60
2018-12-18T23:40:48.429Z,47.50
2018-12-18T23:45:23.343Z,47.70
2018-12-18T23:49:58.211Z,47.00
2018-12-18T23:54:33.100Z,47.50
2018-12-18T23:59:07.975Z,47.60
